sensor_id;sensor_type;location;lat;lon;timestamp;temperature;humidity
22442;DHT22;11388;54.456;9.752;2022-10-16T00:01:10;13.80;99.90
22442;DHT22;11388;54.456;9.752;2022-10-16T00:03:40;13.80;99.90
22442;DHT22;11388;54.456;9.752;2022-10-16T00:06:07;13.80;99.90
22442;DHT22;11388;54.456;9.752;2022-10-16T00:08:33;13.80;99.90
22442;DHT22;11388;54.456;9.752;2022-10-16T00:11:16;13.70;99.90
22442;DHT22;11388;54.456;9.752;2022-10-16T00:13:44;13.70;99.90
22442;DHT22;11388;54.456;9.752;2022-10-16T00:16:12;13.70;99.90
22442;DHT22;11388;54.456;9.752;2022-10-16T00:18:38;13.70;99.90
22442;DHT22;11388;54.456;9.752;2022-10-16T00:21:07;13.70;99.90
22442;DHT22;11388;54.456;9.752;2022-10-16T00:23:33;13.70;99.90
22442;DHT22;11388;54.456;9.752;2022-10-16T00:26:02;13.70;99.90
22442;DHT22;11388;54.456;9.752;2022-10-16T00:28:28;13.70;99.90
22442;DHT22;11388;54.456;9.752;2022-10-16T00:30:54;13.60;99.90
22442;DHT22;11388;54.456;9.752;2022-10-16T00:33:20;13.60;99.90
22442;DHT22;11388;54.456;9.752;2022-10-16T00:35:46;13.60;99.90
22442;DHT22;11388;54.456;9.752;2022-10-16T00:38:11;13.60;99.90
22442;DHT22;11388;54.456;9.752;2022-10-16T00:40:37;13.60;99.90
22442;DHT22;11388;54.456;9.752;2022-10-16T00:43:12;13.50;99.90
22442;DHT22;11388;54.456;9.752;2022-10-16T00:45:37;13.40;99.90
22442;DHT22;11388;54.456;9.752;2022-10-16T00:48:03;13.50;99.90
22442;DHT22;11388;54.456;9.752;2022-10-16T00:50:34;13.50;99.90
22442;DHT22;11388;54.456;9.752;2022-10-16T00:53:01;13.60;99.90
22442;DHT22;11388;54.456;9.752;2022-10-16T00:55:28;13.50;99.90
22442;DHT22;11388;54.456;9.752;2022-10-16T00:57:56;13.50;99.90
22442;DHT22;11388;54.456;9.752;2022-10-16T01:00:24;13.40;99.90
22442;DHT22;11388;54.456;9.752;2022-10-16T01:02:59;13.40;99.90
22442;DHT22;11388;54.456;9.752;2022-10-16T01:05:41;13.50;99.90
22442;DHT22;11388;54.456;9.752;2022-10-16T01:08:17;13.40;99.90
22442;DHT22;11388;54.456;9.752;2022-10-16T01:10:53;13.50;99.90
22442;DHT22;11388;54.456;9.752;2022-10-16T01:13:35;13.40;99.90
22442;DHT22;11388;54.456;9.752;2022-10-16T01:16:08;13.50;99.90
22442;DHT22;11388;54.456;9.752;2022-10-16T01:18:47;13.50;99.90
22442;DHT22;11388;54.456;9.752;2022-10-16T01:35:18;13.30;99.90
22442;DHT22;11388;54.456;9.752;2022-10-16T01:38:00;13.40;99.90
22442;DHT22;11388;54.456;9.752;2022-10-16T01:40:28;13.40;99.90
22442;DHT22;11388;54.456;9.752;2022-10-16T01:43:00;13.40;99.90
22442;DHT22;11388;54.456;9.752;2022-10-16T01:45:29;13.40;99.90
22442;DHT22;11388;54.456;9.752;2022-10-16T01:47:57;13.40;99.90
22442;DHT22;11388;54.456;9.752;2022-10-16T01:50:24;13.40;99.90
22442;DHT22;11388;54.456;9.752;2022-10-16T01:52:52;13.40;99.90
22442;DHT22;11388;54.456;9.752;2022-10-16T01:55:27;13.40;99.90
22442;DHT22;11388;54.456;9.752;2022-10-16T01:57:55;13.40;99.90
22442;DHT22;11388;54.456;9.752;2022-10-16T02:00:22;13.40;99.90
22442;DHT22;11388;54.456;9.752;2022-10-16T02:02:51;13.40;99.90
22442;DHT22;11388;54.456;9.752;2022-10-16T02:05:26;13.40;99.90
22442;DHT22;11388;54.456;9.752;2022-10-16T02:07:53;13.30;99.90
22442;DHT22;11388;54.456;9.752;2022-10-16T02:10:19;13.30;99.90
22442;DHT22;11388;54.456;9.752;2022-10-16T02:12:50;13.30;99.90
22442;DHT22;11388;54.456;9.752;2022-10-16T02:15:16;13.40;99.90
22442;DHT22;11388;54.456;9.752;2022-10-16T02:17:42;13.40;99.90
22442;DHT22;11388;54.456;9.752;2022-10-16T02:20:08;13.40;99.90
22442;DHT22;11388;54.456;9.752;2022-10-16T02:22:38;13.30;99.90
22442;DHT22;11388;54.456;9.752;2022-10-16T02:25:22;13.30;99.90
22442;DHT22;11388;54.456;9.752;2022-10-16T02:28:11;13.30;99.90
22442;DHT22;11388;54.456;9.752;2022-10-16T02:30:47;13.20;99.90
22442;DHT22;11388;54.456;9.752;2022-10-16T02:33:15;13.30;99.90
22442;DHT22;11388;54.456;9.752;2022-10-16T02:35:43;13.20;99.90
22442;DHT22;11388;54.456;9.752;2022-10-16T02:38:11;13.20;99.90
22442;DHT22;11388;54.456;9.752;2022-10-16T02:40:38;13.10;99.90
22442;DHT22;11388;54.456;9.752;2022-10-16T02:43:04;13.10;99.90
22442;DHT22;11388;54.456;9.752;2022-10-16T02:45:30;13.10;99.90
22442;DHT22;11388;54.456;9.752;2022-10-16T02:47:56;13.10;99.90
22442;DHT22;11388;54.456;9.752;2022-10-16T02:50:22;13.10;99.90
22442;DHT22;11388;54.456;9.752;2022-10-16T02:52:48;13.00;99.90
22442;DHT22;11388;54.456;9.752;2022-10-16T02:55:14;13.00;99.90
22442;DHT22;11388;54.456;9.752;2022-10-16T02:57:40;13.10;99.90
22442;DHT22;11388;54.456;9.752;2022-10-16T03:00:09;13.00;99.90
22442;DHT22;11388;54.456;9.752;2022-10-16T03:02:36;13.00;99.90
22442;DHT22;11388;54.456;9.752;2022-10-16T03:05:01;13.00;99.90
22442;DHT22;11388;54.456;9.752;2022-10-16T03:07:27;13.00;99.90
22442;DHT22;11388;54.456;9.752;2022-10-16T03:09:53;13.00;99.90
22442;DHT22;11388;54.456;9.752;2022-10-16T03:12:19;13.00;99.90
22442;DHT22;11388;54.456;9.752;2022-10-16T03:14:45;12.90;99.90
22442;DHT22;11388;54.456;9.752;2022-10-16T03:17:11;13.00;99.90
22442;DHT22;11388;54.456;9.752;2022-10-16T03:19:38;13.00;99.90
22442;DHT22;11388;54.456;9.752;2022-10-16T03:25:26;13.00;99.90
22442;DHT22;11388;54.456;9.752;2022-10-16T03:27:51;13.00;99.90
22442;DHT22;11388;54.456;9.752;2022-10-16T03:30:17;13.00;99.90
22442;DHT22;11388;54.456;9.752;2022-10-16T03:32:46;12.90;99.90
22442;DHT22;11388;54.456;9.752;2022-10-16T03:35:12;12.90;99.90
22442;DHT22;11388;54.456;9.752;2022-10-16T03:37:38;12.90;99.90
22442;DHT22;11388;54.456;9.752;2022-10-16T03:40:04;12.90;99.90
22442;DHT22;11388;54.456;9.752;2022-10-16T03:42:30;12.90;99.90
22442;DHT22;11388;54.456;9.752;2022-10-16T03:44:56;12.90;99.90
22442;DHT22;11388;54.456;9.752;2022-10-16T03:47:22;12.90;99.90
22442;DHT22;11388;54.456;9.752;2022-10-16T03:49:49;12.90;99.90
22442;DHT22;11388;54.456;9.752;2022-10-16T03:52:15;12.90;99.90
22442;DHT22;11388;54.456;9.752;2022-10-16T03:54:41;12.90;99.90
22442;DHT22;11388;54.456;9.752;2022-10-16T03:57:06;12.80;99.90
22442;DHT22;11388;54.456;9.752;2022-10-16T03:59:32;12.80;99.90
22442;DHT22;11388;54.456;9.752;2022-10-16T04:02:09;12.80;99.90
22442;DHT22;11388;54.456;9.752;2022-10-16T04:04:35;12.80;99.90
22442;DHT22;11388;54.456;9.752;2022-10-16T04:07:01;12.80;99.90
22442;DHT22;11388;54.456;9.752;2022-10-16T04:09:26;12.90;99.90
22442;DHT22;11388;54.456;9.752;2022-10-16T04:11:52;12.90;99.90
22442;DHT22;11388;54.456;9.752;2022-10-16T04:14:18;12.80;99.90
22442;DHT22;11388;54.456;9.752;2022-10-16T04:16:44;12.80;99.90
22442;DHT22;11388;54.456;9.752;2022-10-16T04:19:10;12.80;99.90
22442;DHT22;11388;54.456;9.752;2022-10-16T06:07:34;13.00;99.90
22442;DHT22;11388;54.456;9.752;2022-10-16T06:24:41;12.90;99.90
22442;DHT22;11388;54.456;9.752;2022-10-16T06:27:11;13.00;99.90
22442;DHT22;11388;54.456;9.752;2022-10-16T07:44:55;13.50;99.90
22442;DHT22;11388;54.456;9.752;2022-10-16T08:09:57;13.90;99.90
22442;DHT22;11388;54.456;9.752;2022-10-16T08:15:50;14.00;99.90
22442;DHT22;11388;54.456;9.752;2022-10-16T08:18:33;14.10;99.90
22442;DHT22;11388;54.456;9.752;2022-10-16T08:34:45;14.20;99.90
22442;DHT22;11388;54.456;9.752;2022-10-16T08:37:48;14.30;99.90
22442;DHT22;11388;54.456;9.752;2022-10-16T08:47:41;14.50;99.90
22442;DHT22;11388;54.456;9.752;2022-10-16T08:50:26;14.40;99.90
22442;DHT22;11388;54.456;9.752;2022-10-16T09:00:31;14.60;99.90
22442;DHT22;11388;54.456;9.752;2022-10-16T09:22:27;14.90;99.90
22442;DHT22;11388;54.456;9.752;2022-10-16T10:15:52;15.90;99.90
22442;DHT22;11388;54.456;9.752;2022-10-16T10:21:12;15.90;99.90
22442;DHT22;11388;54.456;9.752;2022-10-16T10:23:38;16.10;99.90
22442;DHT22;11388;54.456;9.752;2022-10-16T10:26:13;16.10;99.90
22442;DHT22;11388;54.456;9.752;2022-10-16T10:29:02;16.10;99.90
22442;DHT22;11388;54.456;9.752;2022-10-16T10:31:42;16.10;99.90
22442;DHT22;11388;54.456;9.752;2022-10-16T10:45:47;16.00;99.90
22442;DHT22;11388;54.456;9.752;2022-10-16T10:51:04;16.00;99.90
22442;DHT22;11388;54.456;9.752;2022-10-16T11:07:00;16.20;99.90
22442;DHT22;11388;54.456;9.752;2022-10-16T11:09:48;16.20;99.90
22442;DHT22;11388;54.456;9.752;2022-10-16T11:12:20;16.40;99.90
22442;DHT22;11388;54.456;9.752;2022-10-16T11:17:40;16.40;99.90
22442;DHT22;11388;54.456;9.752;2022-10-16T11:25:51;16.70;99.90
22442;DHT22;11388;54.456;9.752;2022-10-16T11:28:23;16.90;99.90
22442;DHT22;11388;54.456;9.752;2022-10-16T11:31:10;16.80;99.90
22442;DHT22;11388;54.456;9.752;2022-10-16T11:33:57;16.80;99.90
22442;DHT22;11388;54.456;9.752;2022-10-16T11:39:25;16.90;99.90
22442;DHT22;11388;54.456;9.752;2022-10-16T11:49:00;16.70;99.90
22442;DHT22;11388;54.456;9.752;2022-10-16T11:51:39;16.70;99.90
22442;DHT22;11388;54.456;9.752;2022-10-16T11:54:22;16.80;99.90
22442;DHT22;11388;54.456;9.752;2022-10-16T12:10:36;19.00;99.90
22442;DHT22;11388;54.456;9.752;2022-10-16T12:19:36;18.40;99.90
22442;DHT22;11388;54.456;9.752;2022-10-16T12:25:37;17.70;99.90
22442;DHT22;11388;54.456;9.752;2022-10-16T12:35:42;19.10;99.90
22442;DHT22;11388;54.456;9.752;2022-10-16T12:38:31;18.40;99.90
22442;DHT22;11388;54.456;9.752;2022-10-16T12:41:23;18.10;99.90
22442;DHT22;11388;54.456;9.752;2022-10-16T13:18:25;16.70;99.90
22442;DHT22;11388;54.456;9.752;2022-10-16T13:33:59;16.50;99.90
22442;DHT22;11388;54.456;9.752;2022-10-16T13:36:34;16.70;99.90
22442;DHT22;11388;54.456;9.752;2022-10-16T13:39:24;16.90;99.90
22442;DHT22;11388;54.456;9.752;2022-10-16T14:19:54;16.40;99.90
22442;DHT22;11388;54.456;9.752;2022-10-16T14:22:40;16.40;99.90
22442;DHT22;11388;54.456;9.752;2022-10-16T14:25:27;16.20;99.90
22442;DHT22;11388;54.456;9.752;2022-10-16T14:28:16;16.30;99.90
22442;DHT22;11388;54.456;9.752;2022-10-16T14:31:02;16.40;99.90
22442;DHT22;11388;54.456;9.752;2022-10-16T14:36:46;16.20;99.90
22442;DHT22;11388;54.456;9.752;2022-10-16T14:39:22;16.10;99.90
22442;DHT22;11388;54.456;9.752;2022-10-16T14:45:33;16.10;99.90
22442;DHT22;11388;54.456;9.752;2022-10-16T14:58:19;16.00;99.90
22442;DHT22;11388;54.456;9.752;2022-10-16T15:01:44;16.10;99.90
22442;DHT22;11388;54.456;9.752;2022-10-16T15:05:02;16.10;99.90
22442;DHT22;11388;54.456;9.752;2022-10-16T15:14:30;15.80;99.90
22442;DHT22;11388;54.456;9.752;2022-10-16T15:20:35;15.80;99.90
22442;DHT22;11388;54.456;9.752;2022-10-16T15:23:03;15.80;99.90
22442;DHT22;11388;54.456;9.752;2022-10-16T15:32:17;15.70;99.90
22442;DHT22;11388;54.456;9.752;2022-10-16T15:34:58;15.60;99.90
22442;DHT22;11388;54.456;9.752;2022-10-16T15:37:24;15.60;99.90
22442;DHT22;11388;54.456;9.752;2022-10-16T15:40:19;15.70;99.90
22442;DHT22;11388;54.456;9.752;2022-10-16T15:49:59;15.50;99.90
22442;DHT22;11388;54.456;9.752;2022-10-16T15:52:25;15.40;99.90
22442;DHT22;11388;54.456;9.752;2022-10-16T16:08:34;15.00;99.90
22442;DHT22;11388;54.456;9.752;2022-10-16T16:11:16;15.00;99.90
22442;DHT22;11388;54.456;9.752;2022-10-16T16:14:12;14.90;99.90
22442;DHT22;11388;54.456;9.752;2022-10-16T16:20:57;14.70;99.90
22442;DHT22;11388;54.456;9.752;2022-10-16T16:23:46;14.60;99.90
22442;DHT22;11388;54.456;9.752;2022-10-16T16:26:27;14.70;99.90
22442;DHT22;11388;54.456;9.752;2022-10-16T16:28:54;14.60;99.90
22442;DHT22;11388;54.456;9.752;2022-10-16T16:34:18;14.50;99.90
22442;DHT22;11388;54.456;9.752;2022-10-16T16:36:44;14.40;99.90
22442;DHT22;11388;54.456;9.752;2022-10-16T16:42:51;14.30;99.90
22442;DHT22;11388;54.456;9.752;2022-10-16T16:45:54;14.30;99.90
22442;DHT22;11388;54.456;9.752;2022-10-16T16:54:51;14.20;99.90
22442;DHT22;11388;54.456;9.752;2022-10-16T16:57:47;14.20;99.90
22442;DHT22;11388;54.456;9.752;2022-10-16T17:00:25;14.20;99.90
22442;DHT22;11388;54.456;9.752;2022-10-16T17:03:01;14.20;99.90
22442;DHT22;11388;54.456;9.752;2022-10-16T17:11:42;13.90;99.90
22442;DHT22;11388;54.456;9.752;2022-10-16T17:14:10;14.00;99.90
22442;DHT22;11388;54.456;9.752;2022-10-16T17:19:52;14.00;99.90
22442;DHT22;11388;54.456;9.752;2022-10-16T17:22:28;13.90;99.90
22442;DHT22;11388;54.456;9.752;2022-10-16T17:25:18;13.90;99.90
22442;DHT22;11388;54.456;9.752;2022-10-16T17:28:07;13.90;99.90
22442;DHT22;11388;54.456;9.752;2022-10-16T17:30:47;13.90;99.90
22442;DHT22;11388;54.456;9.752;2022-10-16T17:33:26;14.00;99.90
22442;DHT22;11388;54.456;9.752;2022-10-16T17:36:07;14.00;99.90
22442;DHT22;11388;54.456;9.752;2022-10-16T17:38:39;13.90;99.90
22442;DHT22;11388;54.456;9.752;2022-10-16T17:44:38;13.90;99.90
22442;DHT22;11388;54.456;9.752;2022-10-16T17:47:19;13.90;99.90
22442;DHT22;11388;54.456;9.752;2022-10-16T17:50:10;13.80;99.90
22442;DHT22;11388;54.456;9.752;2022-10-16T17:52:38;13.80;99.90
22442;DHT22;11388;54.456;9.752;2022-10-16T17:55:42;13.70;99.90
22442;DHT22;11388;54.456;9.752;2022-10-16T17:58:12;13.70;99.90
22442;DHT22;11388;54.456;9.752;2022-10-16T18:01:01;13.80;99.90
22442;DHT22;11388;54.456;9.752;2022-10-16T18:04:10;13.90;99.90
22442;DHT22;11388;54.456;9.752;2022-10-16T18:09:23;13.90;99.90
22442;DHT22;11388;54.456;9.752;2022-10-16T18:12:09;13.90;99.90
22442;DHT22;11388;54.456;9.752;2022-10-16T18:14:35;13.80;99.90
22442;DHT22;11388;54.456;9.752;2022-10-16T18:17:04;13.70;99.90
22442;DHT22;11388;54.456;9.752;2022-10-16T20:38:49;12.90;99.90
22442;DHT22;11388;54.456;9.752;2022-10-16T20:41:15;12.90;99.90
22442;DHT22;11388;54.456;9.752;2022-10-16T20:43:43;13.00;99.90
22442;DHT22;11388;54.456;9.752;2022-10-16T20:46:11;13.00;99.90
22442;DHT22;11388;54.456;9.752;2022-10-16T20:48:41;13.00;99.90
22442;DHT22;11388;54.456;9.752;2022-10-16T20:51:34;12.90;99.90
22442;DHT22;11388;54.456;9.752;2022-10-16T20:54:02;13.00;99.90
22442;DHT22;11388;54.456;9.752;2022-10-16T20:56:30;13.00;99.90
22442;DHT22;11388;54.456;9.752;2022-10-16T20:58:56;13.00;99.90
22442;DHT22;11388;54.456;9.752;2022-10-16T21:01:24;13.00;99.90
22442;DHT22;11388;54.456;9.752;2022-10-16T21:04:01;12.90;99.90
22442;DHT22;11388;54.456;9.752;2022-10-16T21:06:29;12.90;99.90
22442;DHT22;11388;54.456;9.752;2022-10-16T21:08:55;12.90;99.90
22442;DHT22;11388;54.456;9.752;2022-10-16T21:11:37;12.90;99.90
22442;DHT22;11388;54.456;9.752;2022-10-16T21:14:04;12.90;99.90
22442;DHT22;11388;54.456;9.752;2022-10-16T21:16:31;12.90;99.90
22442;DHT22;11388;54.456;9.752;2022-10-16T21:18:57;12.80;99.90
22442;DHT22;11388;54.456;9.752;2022-10-16T21:21:36;12.80;99.90
22442;DHT22;11388;54.456;9.752;2022-10-16T21:24:02;12.80;99.90
22442;DHT22;11388;54.456;9.752;2022-10-16T21:26:29;12.90;99.90
22442;DHT22;11388;54.456;9.752;2022-10-16T21:28:57;12.90;99.90
22442;DHT22;11388;54.456;9.752;2022-10-16T21:31:23;12.90;99.90
22442;DHT22;11388;54.456;9.752;2022-10-16T21:33:49;12.90;99.90
22442;DHT22;11388;54.456;9.752;2022-10-16T21:36:21;12.90;99.90
22442;DHT22;11388;54.456;9.752;2022-10-16T21:38:49;12.80;99.90
22442;DHT22;11388;54.456;9.752;2022-10-16T21:41:20;12.80;99.90
22442;DHT22;11388;54.456;9.752;2022-10-16T21:43:47;12.80;99.90
22442;DHT22;11388;54.456;9.752;2022-10-16T21:46:13;12.80;99.90
22442;DHT22;11388;54.456;9.752;2022-10-16T21:48:39;12.80;99.90
22442;DHT22;11388;54.456;9.752;2022-10-16T21:51:07;12.80;99.90
22442;DHT22;11388;54.456;9.752;2022-10-16T21:53:33;12.80;99.90
22442;DHT22;11388;54.456;9.752;2022-10-16T21:55:59;12.80;99.90
22442;DHT22;11388;54.456;9.752;2022-10-16T21:58:25;12.80;99.90
22442;DHT22;11388;54.456;9.752;2022-10-16T22:00:51;12.70;99.90
22442;DHT22;11388;54.456;9.752;2022-10-16T22:03:17;12.60;99.90
22442;DHT22;11388;54.456;9.752;2022-10-16T22:05:42;12.70;99.90
22442;DHT22;11388;54.456;9.752;2022-10-16T22:08:08;12.60;99.90
22442;DHT22;11388;54.456;9.752;2022-10-16T22:10:34;12.60;99.90
22442;DHT22;11388;54.456;9.752;2022-10-16T22:12:59;12.50;99.90
22442;DHT22;11388;54.456;9.752;2022-10-16T22:15:25;12.50;99.90
22442;DHT22;11388;54.456;9.752;2022-10-16T22:17:51;12.60;99.90
22442;DHT22;11388;54.456;9.752;2022-10-16T22:20:16;12.60;99.90
22442;DHT22;11388;54.456;9.752;2022-10-16T22:22:42;12.60;99.90
22442;DHT22;11388;54.456;9.752;2022-10-16T22:25:08;12.60;99.90
22442;DHT22;11388;54.456;9.752;2022-10-16T22:27:33;12.60;99.90
22442;DHT22;11388;54.456;9.752;2022-10-16T22:29:59;12.60;99.90
22442;DHT22;11388;54.456;9.752;2022-10-16T22:32:25;12.60;99.90
22442;DHT22;11388;54.456;9.752;2022-10-16T22:34:50;12.60;99.90
22442;DHT22;11388;54.456;9.752;2022-10-16T22:37:16;12.60;99.90
22442;DHT22;11388;54.456;9.752;2022-10-16T22:39:42;12.60;99.90
22442;DHT22;11388;54.456;9.752;2022-10-16T22:42:07;12.60;99.90
22442;DHT22;11388;54.456;9.752;2022-10-16T22:44:33;12.60;99.90
22442;DHT22;11388;54.456;9.752;2022-10-16T22:46:59;12.60;99.90
22442;DHT22;11388;54.456;9.752;2022-10-16T22:49:24;12.50;99.90
22442;DHT22;11388;54.456;9.752;2022-10-16T22:51:50;12.50;99.90
22442;DHT22;11388;54.456;9.752;2022-10-16T22:54:16;12.50;99.90
22442;DHT22;11388;54.456;9.752;2022-10-16T22:56:41;12.40;99.90
22442;DHT22;11388;54.456;9.752;2022-10-16T22:59:08;12.50;99.90
22442;DHT22;11388;54.456;9.752;2022-10-16T23:01:38;12.50;99.90
22442;DHT22;11388;54.456;9.752;2022-10-16T23:04:05;12.40;99.90
22442;DHT22;11388;54.456;9.752;2022-10-16T23:06:32;12.50;99.90
22442;DHT22;11388;54.456;9.752;2022-10-16T23:08:59;12.40;99.90
22442;DHT22;11388;54.456;9.752;2022-10-16T23:11:27;12.30;99.90
22442;DHT22;11388;54.456;9.752;2022-10-16T23:13:54;12.30;99.90
22442;DHT22;11388;54.456;9.752;2022-10-16T23:16:21;12.30;99.90
22442;DHT22;11388;54.456;9.752;2022-10-16T23:18:47;12.30;99.90
22442;DHT22;11388;54.456;9.752;2022-10-16T23:21:19;12.40;99.90
22442;DHT22;11388;54.456;9.752;2022-10-16T23:23:46;12.40;99.90
22442;DHT22;11388;54.456;9.752;2022-10-16T23:26:18;12.40;99.90
22442;DHT22;11388;54.456;9.752;2022-10-16T23:28:44;12.40;99.90
22442;DHT22;11388;54.456;9.752;2022-10-16T23:31:11;12.30;99.90
22442;DHT22;11388;54.456;9.752;2022-10-16T23:33:38;12.30;99.90
22442;DHT22;11388;54.456;9.752;2022-10-16T23:36:10;12.40;99.90
22442;DHT22;11388;54.456;9.752;2022-10-16T23:38:36;12.40;99.90
22442;DHT22;11388;54.456;9.752;2022-10-16T23:41:02;12.40;99.90
22442;DHT22;11388;54.456;9.752;2022-10-16T23:43:28;12.40;99.90
22442;DHT22;11388;54.456;9.752;2022-10-16T23:45:53;12.30;99.90
22442;DHT22;11388;54.456;9.752;2022-10-16T23:48:19;12.20;99.90
22442;DHT22;11388;54.456;9.752;2022-10-16T23:50:45;12.30;99.90
22442;DHT22;11388;54.456;9.752;2022-10-16T23:53:10;12.30;99.90
22442;DHT22;11388;54.456;9.752;2022-10-16T23:55:36;12.30;99.90
22442;DHT22;11388;54.456;9.752;2022-10-16T23:58:02;12.30;99.90
